sensor_id;sensor_type;location;lat;lon;timestamp;temperature;humidity
19493;DHT22;9887;54.366;10.958;2022-09-03T00:00:21;16.50;99.90
19493;DHT22;9887;54.366;10.958;2022-09-03T00:02:57;16.50;99.90
19493;DHT22;9887;54.366;10.958;2022-09-03T00:05:34;16.50;99.90
19493;DHT22;9887;54.366;10.958;2022-09-03T00:08:09;16.50;99.90
19493;DHT22;9887;54.366;10.958;2022-09-03T00:10:44;16.50;99.90
19493;DHT22;9887;54.366;10.958;2022-09-03T00:13:16;16.50;99.90
19493;DHT22;9887;54.366;10.958;2022-09-03T00:15:49;16.40;99.90
19493;DHT22;9887;54.366;10.958;2022-09-03T00:18:21;16.40;99.90
19493;DHT22;9887;54.366;10.958;2022-09-03T00:20:53;16.40;99.90
19493;DHT22;9887;54.366;10.958;2022-09-03T00:23:27;16.40;99.90
19493;DHT22;9887;54.366;10.958;2022-09-03T00:26:13;16.40;99.90
19493;DHT22;9887;54.366;10.958;2022-09-03T00:28:46;16.40;99.90
19493;DHT22;9887;54.366;10.958;2022-09-03T00:31:20;16.40;99.90
19493;DHT22;9887;54.366;10.958;2022-09-03T00:33:53;16.40;99.90
19493;DHT22;9887;54.366;10.958;2022-09-03T00:36:24;16.40;99.90
19493;DHT22;9887;54.366;10.958;2022-09-03T00:38:56;16.40;99.90
19493;DHT22;9887;54.366;10.958;2022-09-03T00:41:32;16.40;99.90
19493;DHT22;9887;54.366;10.958;2022-09-03T00:44:19;16.30;99.90
19493;DHT22;9887;54.366;10.958;2022-09-03T00:47:01;16.30;99.90
19493;DHT22;9887;54.366;10.958;2022-09-03T00:49:40;16.30;99.90
19493;DHT22;9887;54.366;10.958;2022-09-03T00:52:17;16.30;99.90
19493;DHT22;9887;54.366;10.958;2022-09-03T00:54:55;16.40;99.90
19493;DHT22;9887;54.366;10.958;2022-09-03T00:57:34;16.40;99.90
19493;DHT22;9887;54.366;10.958;2022-09-03T01:00:08;16.40;99.90
19493;DHT22;9887;54.366;10.958;2022-09-03T01:02:51;16.40;99.90
19493;DHT22;9887;54.366;10.958;2022-09-03T01:05:51;16.40;99.90
19493;DHT22;9887;54.366;10.958;2022-09-03T01:08:49;16.40;99.90
19493;DHT22;9887;54.366;10.958;2022-09-03T01:11:25;16.50;99.90
19493;DHT22;9887;54.366;10.958;2022-09-03T01:14:00;16.50;99.90
19493;DHT22;9887;54.366;10.958;2022-09-03T01:16:36;16.50;99.90
19493;DHT22;9887;54.366;10.958;2022-09-03T01:19:26;16.50;99.90
19493;DHT22;9887;54.366;10.958;2022-09-03T01:22:15;16.50;99.90
19493;DHT22;9887;54.366;10.958;2022-09-03T01:25:01;16.50;99.90
19493;DHT22;9887;54.366;10.958;2022-09-03T01:27:40;16.50;99.90
19493;DHT22;9887;54.366;10.958;2022-09-03T01:30:16;16.50;99.90
19493;DHT22;9887;54.366;10.958;2022-09-03T01:32:50;16.50;99.90
19493;DHT22;9887;54.366;10.958;2022-09-03T01:35:25;16.50;99.90
19493;DHT22;9887;54.366;10.958;2022-09-03T01:38:08;16.50;99.90
19493;DHT22;9887;54.366;10.958;2022-09-03T01:40:45;16.50;99.90
19493;DHT22;9887;54.366;10.958;2022-09-03T01:43:26;16.50;99.90
19493;DHT22;9887;54.366;10.958;2022-09-03T01:46:05;16.50;99.90
19493;DHT22;9887;54.366;10.958;2022-09-03T01:48:41;16.50;99.90
19493;DHT22;9887;54.366;10.958;2022-09-03T01:51:17;16.50;99.90
19493;DHT22;9887;54.366;10.958;2022-09-03T01:54:19;16.50;99.90
19493;DHT22;9887;54.366;10.958;2022-09-03T01:57:23;16.50;99.90
19493;DHT22;9887;54.366;10.958;2022-09-03T02:00:05;16.50;99.90
19493;DHT22;9887;54.366;10.958;2022-09-03T02:02:42;16.50;99.90
19493;DHT22;9887;54.366;10.958;2022-09-03T02:05:15;16.50;99.90
19493;DHT22;9887;54.366;10.958;2022-09-03T02:07:45;16.50;99.90
19493;DHT22;9887;54.366;10.958;2022-09-03T02:10:16;16.50;99.90
19493;DHT22;9887;54.366;10.958;2022-09-03T02:12:48;16.50;99.90
19493;DHT22;9887;54.366;10.958;2022-09-03T02:15:20;16.50;99.90
19493;DHT22;9887;54.366;10.958;2022-09-03T02:17:51;16.50;99.90
19493;DHT22;9887;54.366;10.958;2022-09-03T02:20:24;16.50;99.90
19493;DHT22;9887;54.366;10.958;2022-09-03T02:22:55;16.50;99.90
19493;DHT22;9887;54.366;10.958;2022-09-03T02:25:28;16.50;99.90
19493;DHT22;9887;54.366;10.958;2022-09-03T02:27:58;16.50;99.90
19493;DHT22;9887;54.366;10.958;2022-09-03T02:30:27;16.60;99.90
19493;DHT22;9887;54.366;10.958;2022-09-03T02:32:56;16.60;99.90
19493;DHT22;9887;54.366;10.958;2022-09-03T02:35:25;16.60;99.90
19493;DHT22;9887;54.366;10.958;2022-09-03T02:37:53;16.60;99.90
19493;DHT22;9887;54.366;10.958;2022-09-03T02:40:21;16.60;99.90
19493;DHT22;9887;54.366;10.958;2022-09-03T02:42:49;16.60;99.90
19493;DHT22;9887;54.366;10.958;2022-09-03T02:45:26;16.60;99.90
19493;DHT22;9887;54.366;10.958;2022-09-03T02:47:58;16.60;99.90
19493;DHT22;9887;54.366;10.958;2022-09-03T02:50:27;16.60;99.90
19493;DHT22;9887;54.366;10.958;2022-09-03T02:52:55;16.60;99.90
19493;DHT22;9887;54.366;10.958;2022-09-03T02:55:23;16.60;99.90
19493;DHT22;9887;54.366;10.958;2022-09-03T02:57:51;16.60;99.90
19493;DHT22;9887;54.366;10.958;2022-09-03T03:00:19;16.60;99.90
19493;DHT22;9887;54.366;10.958;2022-09-03T03:02:47;16.60;99.90
19493;DHT22;9887;54.366;10.958;2022-09-03T03:05:22;16.60;99.90
19493;DHT22;9887;54.366;10.958;2022-09-03T03:07:52;16.60;99.90
19493;DHT22;9887;54.366;10.958;2022-09-03T03:10:24;16.60;99.90
19493;DHT22;9887;54.366;10.958;2022-09-03T03:12:52;16.60;99.90
19493;DHT22;9887;54.366;10.958;2022-09-03T03:15:20;16.60;99.90
19493;DHT22;9887;54.366;10.958;2022-09-03T03:17:48;16.50;99.90
19493;DHT22;9887;54.366;10.958;2022-09-03T03:20:17;16.50;99.90
19493;DHT22;9887;54.366;10.958;2022-09-03T03:22:46;16.50;99.90
19493;DHT22;9887;54.366;10.958;2022-09-03T03:25:14;16.50;99.90
19493;DHT22;9887;54.366;10.958;2022-09-03T03:27:42;16.50;99.90
19493;DHT22;9887;54.366;10.958;2022-09-03T03:30:11;16.60;99.90
19493;DHT22;9887;54.366;10.958;2022-09-03T03:32:39;16.50;99.90
19493;DHT22;9887;54.366;10.958;2022-09-03T03:35:07;16.50;99.90
19493;DHT22;9887;54.366;10.958;2022-09-03T03:37:38;16.50;99.90
19493;DHT22;9887;54.366;10.958;2022-09-03T03:40:07;16.60;99.90
19493;DHT22;9887;54.366;10.958;2022-09-03T03:42:36;16.60;99.90
19493;DHT22;9887;54.366;10.958;2022-09-03T03:45:04;16.60;99.90
19493;DHT22;9887;54.366;10.958;2022-09-03T03:47:33;16.50;99.90
19493;DHT22;9887;54.366;10.958;2022-09-03T03:50:01;16.50;99.90
19493;DHT22;9887;54.366;10.958;2022-09-03T03:52:29;16.50;99.90
19493;DHT22;9887;54.366;10.958;2022-09-03T03:54:58;16.50;99.90
19493;DHT22;9887;54.366;10.958;2022-09-03T03:57:29;16.50;99.90
19493;DHT22;9887;54.366;10.958;2022-09-03T03:59:57;16.50;99.90
19493;DHT22;9887;54.366;10.958;2022-09-03T04:02:25;16.50;99.90
19493;DHT22;9887;54.366;10.958;2022-09-03T04:04:53;16.50;99.90
19493;DHT22;9887;54.366;10.958;2022-09-03T04:07:21;16.50;99.90
19493;DHT22;9887;54.366;10.958;2022-09-03T04:09:49;16.50;99.90
19493;DHT22;9887;54.366;10.958;2022-09-03T04:12:18;16.50;99.90
19493;DHT22;9887;54.366;10.958;2022-09-03T04:14:46;16.50;99.90
19493;DHT22;9887;54.366;10.958;2022-09-03T04:17:14;16.50;99.90
19493;DHT22;9887;54.366;10.958;2022-09-03T04:19:42;16.50;99.90
19493;DHT22;9887;54.366;10.958;2022-09-03T04:22:13;16.50;99.90
19493;DHT22;9887;54.366;10.958;2022-09-03T04:24:42;16.50;99.90
19493;DHT22;9887;54.366;10.958;2022-09-03T04:27:10;16.50;99.90
19493;DHT22;9887;54.366;10.958;2022-09-03T04:29:39;16.40;99.90
19493;DHT22;9887;54.366;10.958;2022-09-03T04:32:07;16.40;99.90
19493;DHT22;9887;54.366;10.958;2022-09-03T04:34:52;16.40;99.90
19493;DHT22;9887;54.366;10.958;2022-09-03T04:37:20;16.40;99.90
19493;DHT22;9887;54.366;10.958;2022-09-03T04:39:48;16.40;99.90
19493;DHT22;9887;54.366;10.958;2022-09-03T04:42:16;16.40;99.90
19493;DHT22;9887;54.366;10.958;2022-09-03T04:44:45;16.50;99.90
19493;DHT22;9887;54.366;10.958;2022-09-03T04:47:13;16.50;99.90
19493;DHT22;9887;54.366;10.958;2022-09-03T04:49:42;16.50;99.90
19493;DHT22;9887;54.366;10.958;2022-09-03T04:52:10;16.50;99.90
19493;DHT22;9887;54.366;10.958;2022-09-03T04:54:38;16.50;99.90
19493;DHT22;9887;54.366;10.958;2022-09-03T04:57:06;16.50;99.90
19493;DHT22;9887;54.366;10.958;2022-09-03T04:59:34;16.50;99.90
19493;DHT22;9887;54.366;10.958;2022-09-03T05:02:03;16.50;99.90
19493;DHT22;9887;54.366;10.958;2022-09-03T05:04:31;16.50;99.90
19493;DHT22;9887;54.366;10.958;2022-09-03T05:06:59;16.50;99.90
19493;DHT22;9887;54.366;10.958;2022-09-03T05:09:28;16.50;99.90
19493;DHT22;9887;54.366;10.958;2022-09-03T05:11:59;16.50;99.90
19493;DHT22;9887;54.366;10.958;2022-09-03T05:14:27;16.50;99.90
19493;DHT22;9887;54.366;10.958;2022-09-03T05:16:55;16.50;99.90
19493;DHT22;9887;54.366;10.958;2022-09-03T05:19:24;16.50;99.90
19493;DHT22;9887;54.366;10.958;2022-09-03T05:21:52;16.50;99.90
19493;DHT22;9887;54.366;10.958;2022-09-03T05:24:20;16.50;99.90
19493;DHT22;9887;54.366;10.958;2022-09-03T05:26:48;16.50;99.90
19493;DHT22;9887;54.366;10.958;2022-09-03T05:29:16;16.50;99.90
19493;DHT22;9887;54.366;10.958;2022-09-03T05:31:45;16.60;99.90
19493;DHT22;9887;54.366;10.958;2022-09-03T05:34:13;16.60;99.90
19493;DHT22;9887;54.366;10.958;2022-09-03T05:36:45;16.60;99.90
19493;DHT22;9887;54.366;10.958;2022-09-03T05:39:15;16.60;99.90
19493;DHT22;9887;54.366;10.958;2022-09-03T05:41:43;16.50;99.90
19493;DHT22;9887;54.366;10.958;2022-09-03T05:44:11;16.50;99.90
19493;DHT22;9887;54.366;10.958;2022-09-03T05:46:40;16.50;99.90
19493;DHT22;9887;54.366;10.958;2022-09-03T05:49:08;16.60;99.90
19493;DHT22;9887;54.366;10.958;2022-09-03T05:51:37;16.60;99.90
19493;DHT22;9887;54.366;10.958;2022-09-03T05:54:07;16.60;99.90
19493;DHT22;9887;54.366;10.958;2022-09-03T05:56:37;16.60;99.90
19493;DHT22;9887;54.366;10.958;2022-09-03T05:59:07;16.60;99.90
19493;DHT22;9887;54.366;10.958;2022-09-03T06:01:36;16.60;99.90
19493;DHT22;9887;54.366;10.958;2022-09-03T06:04:06;16.60;99.90
19493;DHT22;9887;54.366;10.958;2022-09-03T06:06:35;16.60;99.90
19493;DHT22;9887;54.366;10.958;2022-09-03T06:09:07;16.60;99.90
19493;DHT22;9887;54.366;10.958;2022-09-03T06:11:37;16.70;99.90
19493;DHT22;9887;54.366;10.958;2022-09-03T06:14:06;16.60;99.90
19493;DHT22;9887;54.366;10.958;2022-09-03T06:16:37;16.70;99.90
19493;DHT22;9887;54.366;10.958;2022-09-03T06:19:06;16.70;99.90
19493;DHT22;9887;54.366;10.958;2022-09-03T06:21:36;16.80;99.90
19493;DHT22;9887;54.366;10.958;2022-09-03T06:24:10;16.80;99.90
19493;DHT22;9887;54.366;10.958;2022-09-03T06:26:41;16.80;99.90
19493;DHT22;9887;54.366;10.958;2022-09-03T06:29:09;16.90;99.90
19493;DHT22;9887;54.366;10.958;2022-09-03T06:31:38;16.80;99.90
19493;DHT22;9887;54.366;10.958;2022-09-03T06:34:07;16.90;99.90
19493;DHT22;9887;54.366;10.958;2022-09-03T06:36:35;16.90;99.90
19493;DHT22;9887;54.366;10.958;2022-09-03T06:39:03;16.90;99.90
19493;DHT22;9887;54.366;10.958;2022-09-03T06:41:32;16.90;99.90
19493;DHT22;9887;54.366;10.958;2022-09-03T06:44:02;16.90;99.90
19493;DHT22;9887;54.366;10.958;2022-09-03T06:46:32;17.00;99.90
19493;DHT22;9887;54.366;10.958;2022-09-03T06:49:01;17.00;99.90
19493;DHT22;9887;54.366;10.958;2022-09-03T06:51:31;17.00;99.90
19493;DHT22;9887;54.366;10.958;2022-09-03T06:54:01;17.00;99.90
19493;DHT22;9887;54.366;10.958;2022-09-03T06:56:29;17.00;99.90
19493;DHT22;9887;54.366;10.958;2022-09-03T06:59:08;17.00;99.90
19493;DHT22;9887;54.366;10.958;2022-09-03T07:01:37;17.10;99.90
19493;DHT22;9887;54.366;10.958;2022-09-03T07:04:11;17.10;99.90
19493;DHT22;9887;54.366;10.958;2022-09-03T07:06:40;17.10;99.90
19493;DHT22;9887;54.366;10.958;2022-09-03T07:09:10;17.20;99.90
19493;DHT22;9887;54.366;10.958;2022-09-03T07:11:38;17.30;99.90
19493;DHT22;9887;54.366;10.958;2022-09-03T07:14:15;17.30;99.90
19493;DHT22;9887;54.366;10.958;2022-09-03T07:16:44;17.40;99.90
19493;DHT22;9887;54.366;10.958;2022-09-03T07:19:13;17.40;99.90
19493;DHT22;9887;54.366;10.958;2022-09-03T07:21:42;17.50;99.90
19493;DHT22;9887;54.366;10.958;2022-09-03T07:24:16;17.50;99.90
19493;DHT22;9887;54.366;10.958;2022-09-03T07:26:45;17.70;99.90
19493;DHT22;9887;54.366;10.958;2022-09-03T07:29:16;17.70;99.90
19493;DHT22;9887;54.366;10.958;2022-09-03T07:31:48;17.70;99.90
19493;DHT22;9887;54.366;10.958;2022-09-03T07:34:19;17.70;99.90
19493;DHT22;9887;54.366;10.958;2022-09-03T07:36:51;17.80;99.90
19493;DHT22;9887;54.366;10.958;2022-09-03T07:39:19;17.70;99.90
19493;DHT22;9887;54.366;10.958;2022-09-03T07:41:47;17.70;99.90
19493;DHT22;9887;54.366;10.958;2022-09-03T07:44:17;17.70;99.90
19493;DHT22;9887;54.366;10.958;2022-09-03T07:46:47;17.80;99.90
19493;DHT22;9887;54.366;10.958;2022-09-03T07:49:17;17.90;99.90
19493;DHT22;9887;54.366;10.958;2022-09-03T07:51:46;18.00;99.90
19493;DHT22;9887;54.366;10.958;2022-09-03T07:54:16;18.10;99.90
19493;DHT22;9887;54.366;10.958;2022-09-03T07:56:46;18.10;99.90
19493;DHT22;9887;54.366;10.958;2022-09-03T07:59:13;18.20;99.90
19493;DHT22;9887;54.366;10.958;2022-09-03T08:01:43;18.20;99.90
19493;DHT22;9887;54.366;10.958;2022-09-03T08:04:11;18.20;99.90
19493;DHT22;9887;54.366;10.958;2022-09-03T08:06:39;18.40;99.90
19493;DHT22;9887;54.366;10.958;2022-09-03T08:09:10;18.50;99.90
19493;DHT22;9887;54.366;10.958;2022-09-03T08:11:41;18.60;99.90
19493;DHT22;9887;54.366;10.958;2022-09-03T08:14:12;18.70;99.90
19493;DHT22;9887;54.366;10.958;2022-09-03T08:16:43;18.80;99.90
19493;DHT22;9887;54.366;10.958;2022-09-03T08:19:12;18.80;99.90
19493;DHT22;9887;54.366;10.958;2022-09-03T08:21:41;18.90;99.90
19493;DHT22;9887;54.366;10.958;2022-09-03T08:24:09;19.00;99.90
19493;DHT22;9887;54.366;10.958;2022-09-03T08:26:40;19.00;99.90
19493;DHT22;9887;54.366;10.958;2022-09-03T08:29:13;19.00;99.90
19493;DHT22;9887;54.366;10.958;2022-09-03T08:31:43;19.00;99.90
19493;DHT22;9887;54.366;10.958;2022-09-03T08:34:11;19.20;99.90
19493;DHT22;9887;54.366;10.958;2022-09-03T08:36:40;19.30;99.90
19493;DHT22;9887;54.366;10.958;2022-09-03T08:39:09;19.40;99.90
19493;DHT22;9887;54.366;10.958;2022-09-03T08:41:52;19.50;99.90
19493;DHT22;9887;54.366;10.958;2022-09-03T08:44:26;19.50;99.90
19493;DHT22;9887;54.366;10.958;2022-09-03T08:46:58;19.60;99.90
19493;DHT22;9887;54.366;10.958;2022-09-03T08:49:31;19.60;99.90
19493;DHT22;9887;54.366;10.958;2022-09-03T08:52:02;19.60;99.90
19493;DHT22;9887;54.366;10.958;2022-09-03T08:54:31;19.70;99.90
19493;DHT22;9887;54.366;10.958;2022-09-03T08:57:01;19.60;99.90
19493;DHT22;9887;54.366;10.958;2022-09-03T08:59:30;19.80;99.90
19493;DHT22;9887;54.366;10.958;2022-09-03T09:02:10;19.70;99.90
19493;DHT22;9887;54.366;10.958;2022-09-03T09:04:52;19.70;99.90
19493;DHT22;9887;54.366;10.958;2022-09-03T09:07:26;19.70;99.90
19493;DHT22;9887;54.366;10.958;2022-09-03T09:10:02;19.70;99.90
19493;DHT22;9887;54.366;10.958;2022-09-03T09:12:44;19.80;99.90
19493;DHT22;9887;54.366;10.958;2022-09-03T09:15:25;19.80;99.90
19493;DHT22;9887;54.366;10.958;2022-09-03T09:18:04;20.00;99.90
19493;DHT22;9887;54.366;10.958;2022-09-03T09:20:43;20.20;99.90
19493;DHT22;9887;54.366;10.958;2022-09-03T09:23:14;20.20;99.90
19493;DHT22;9887;54.366;10.958;2022-09-03T09:25:46;20.30;99.90
19493;DHT22;9887;54.366;10.958;2022-09-03T09:28:17;20.30;99.90
19493;DHT22;9887;54.366;10.958;2022-09-03T09:30:46;20.30;99.90
19493;DHT22;9887;54.366;10.958;2022-09-03T09:33:17;20.30;99.90
19493;DHT22;9887;54.366;10.958;2022-09-03T09:35:47;20.20;99.90
19493;DHT22;9887;54.366;10.958;2022-09-03T09:38:26;20.20;99.90
19493;DHT22;9887;54.366;10.958;2022-09-03T09:40:54;20.30;99.90
19493;DHT22;9887;54.366;10.958;2022-09-03T09:43:24;20.40;99.90
19493;DHT22;9887;54.366;10.958;2022-09-03T09:45:52;20.20;99.90
19493;DHT22;9887;54.366;10.958;2022-09-03T09:48:25;20.30;99.90
19493;DHT22;9887;54.366;10.958;2022-09-03T09:51:05;20.30;99.90
19493;DHT22;9887;54.366;10.958;2022-09-03T09:53:33;20.30;99.90
19493;DHT22;9887;54.366;10.958;2022-09-03T09:56:02;20.40;99.90
19493;DHT22;9887;54.366;10.958;2022-09-03T09:58:31;20.40;99.90
19493;DHT22;9887;54.366;10.958;2022-09-03T10:01:02;20.40;99.90
19493;DHT22;9887;54.366;10.958;2022-09-03T10:03:48;20.40;99.90
19493;DHT22;9887;54.366;10.958;2022-09-03T10:06:16;20.40;99.90
19493;DHT22;9887;54.366;10.958;2022-09-03T10:09:06;20.60;99.90
19493;DHT22;9887;54.366;10.958;2022-09-03T10:11:35;20.60;99.90
19493;DHT22;9887;54.366;10.958;2022-09-03T10:14:09;20.50;99.90
19493;DHT22;9887;54.366;10.958;2022-09-03T10:16:43;20.50;99.90
19493;DHT22;9887;54.366;10.958;2022-09-03T10:19:18;20.50;99.90
19493;DHT22;9887;54.366;10.958;2022-09-03T10:21:53;20.60;99.90
19493;DHT22;9887;54.366;10.958;2022-09-03T10:24:30;20.60;99.90
19493;DHT22;9887;54.366;10.958;2022-09-03T10:27:07;20.70;99.90
19493;DHT22;9887;54.366;10.958;2022-09-03T10:29:38;20.70;99.90
19493;DHT22;9887;54.366;10.958;2022-09-03T10:32:23;20.70;99.90
19493;DHT22;9887;54.366;10.958;2022-09-03T10:35:12;20.50;99.90
19493;DHT22;9887;54.366;10.958;2022-09-03T10:37:50;20.70;99.90
19493;DHT22;9887;54.366;10.958;2022-09-03T10:40:26;20.70;99.90
19493;DHT22;9887;54.366;10.958;2022-09-03T10:46:08;20.90;99.90
19493;DHT22;9887;54.366;10.958;2022-09-03T10:49:03;20.80;99.90
19493;DHT22;9887;54.366;10.958;2022-09-03T10:51:40;21.00;99.90
19493;DHT22;9887;54.366;10.958;2022-09-03T10:54:38;20.90;99.90
19493;DHT22;9887;54.366;10.958;2022-09-03T10:57:17;20.70;99.90
19493;DHT22;9887;54.366;10.958;2022-09-03T10:59:59;20.70;99.90
19493;DHT22;9887;54.366;10.958;2022-09-03T11:02:45;20.80;99.90
19493;DHT22;9887;54.366;10.958;2022-09-03T11:05:21;20.80;99.90
19493;DHT22;9887;54.366;10.958;2022-09-03T11:07:56;21.00;99.90
19493;DHT22;9887;54.366;10.958;2022-09-03T11:10:28;21.00;99.90
19493;DHT22;9887;54.366;10.958;2022-09-03T11:13:02;21.00;99.90
19493;DHT22;9887;54.366;10.958;2022-09-03T11:15:35;21.00;99.90
19493;DHT22;9887;54.366;10.958;2022-09-03T11:18:14;21.10;99.90
19493;DHT22;9887;54.366;10.958;2022-09-03T11:20:43;21.10;99.90
19493;DHT22;9887;54.366;10.958;2022-09-03T11:23:12;21.30;99.90
19493;DHT22;9887;54.366;10.958;2022-09-03T11:25:42;21.30;99.90
19493;DHT22;9887;54.366;10.958;2022-09-03T11:28:19;21.40;99.90
19493;DHT22;9887;54.366;10.958;2022-09-03T11:30:59;21.20;99.90
19493;DHT22;9887;54.366;10.958;2022-09-03T11:33:32;21.40;99.90
19493;DHT22;9887;54.366;10.958;2022-09-03T11:36:05;21.40;99.90
19493;DHT22;9887;54.366;10.958;2022-09-03T11:38:35;21.20;99.90
19493;DHT22;9887;54.366;10.958;2022-09-03T11:41:12;21.00;99.90
19493;DHT22;9887;54.366;10.958;2022-09-03T11:43:42;21.10;99.90
19493;DHT22;9887;54.366;10.958;2022-09-03T11:46:13;21.30;99.90
19493;DHT22;9887;54.366;10.958;2022-09-03T11:48:54;21.20;99.90
19493;DHT22;9887;54.366;10.958;2022-09-03T11:51:32;21.10;99.90
19493;DHT22;9887;54.366;10.958;2022-09-03T11:54:06;21.00;99.90
19493;DHT22;9887;54.366;10.958;2022-09-03T11:56:35;21.20;99.90
19493;DHT22;9887;54.366;10.958;2022-09-03T11:59:17;21.20;99.90
19493;DHT22;9887;54.366;10.958;2022-09-03T12:01:49;21.30;99.90
19493;DHT22;9887;54.366;10.958;2022-09-03T12:04:21;21.30;99.90
19493;DHT22;9887;54.366;10.958;2022-09-03T12:07:02;21.30;99.90
19493;DHT22;9887;54.366;10.958;2022-09-03T12:09:48;21.10;99.90
19493;DHT22;9887;54.366;10.958;2022-09-03T12:12:30;21.20;99.90
19493;DHT22;9887;54.366;10.958;2022-09-03T12:15:06;21.10;99.90
19493;DHT22;9887;54.366;10.958;2022-09-03T12:17:42;21.20;99.90
19493;DHT22;9887;54.366;10.958;2022-09-03T12:20:15;21.30;99.90
19493;DHT22;9887;54.366;10.958;2022-09-03T12:22:44;21.30;99.90
19493;DHT22;9887;54.366;10.958;2022-09-03T12:25:14;21.20;99.90
19493;DHT22;9887;54.366;10.958;2022-09-03T12:27:44;21.20;99.90
19493;DHT22;9887;54.366;10.958;2022-09-03T12:30:15;21.30;99.90
19493;DHT22;9887;54.366;10.958;2022-09-03T12:32:43;21.40;99.90
19493;DHT22;9887;54.366;10.958;2022-09-03T12:35:15;21.50;99.90
19493;DHT22;9887;54.366;10.958;2022-09-03T12:38:03;21.50;99.90
19493;DHT22;9887;54.366;10.958;2022-09-03T12:40:41;21.40;99.90
19493;DHT22;9887;54.366;10.958;2022-09-03T12:43:30;21.30;99.90
19493;DHT22;9887;54.366;10.958;2022-09-03T12:46:13;21.30;99.90
19493;DHT22;9887;54.366;10.958;2022-09-03T12:48:51;21.40;99.90
19493;DHT22;9887;54.366;10.958;2022-09-03T12:51:40;21.60;99.90
19493;DHT22;9887;54.366;10.958;2022-09-03T12:54:22;21.60;99.90
19493;DHT22;9887;54.366;10.958;2022-09-03T12:56:54;21.60;99.90
19493;DHT22;9887;54.366;10.958;2022-09-03T12:59:26;21.70;99.90
19493;DHT22;9887;54.366;10.958;2022-09-03T13:01:57;21.80;99.90
19493;DHT22;9887;54.366;10.958;2022-09-03T13:04:29;21.90;99.90
19493;DHT22;9887;54.366;10.958;2022-09-03T13:07:01;21.80;99.90
19493;DHT22;9887;54.366;10.958;2022-09-03T13:09:32;21.50;99.90
19493;DHT22;9887;54.366;10.958;2022-09-03T13:12:04;21.40;99.90
19493;DHT22;9887;54.366;10.958;2022-09-03T13:14:41;21.20;99.90
19493;DHT22;9887;54.366;10.958;2022-09-03T13:17:26;21.30;99.90
19493;DHT22;9887;54.366;10.958;2022-09-03T13:20:14;21.40;99.90
19493;DHT22;9887;54.366;10.958;2022-09-03T13:22:59;21.50;99.90
19493;DHT22;9887;54.366;10.958;2022-09-03T13:25:33;21.50;99.90
19493;DHT22;9887;54.366;10.958;2022-09-03T13:28:18;21.60;99.90
19493;DHT22;9887;54.366;10.958;2022-09-03T13:30:54;21.50;99.90
19493;DHT22;9887;54.366;10.958;2022-09-03T13:33:27;21.70;99.90
19493;DHT22;9887;54.366;10.958;2022-09-03T13:36:02;21.70;99.90
19493;DHT22;9887;54.366;10.958;2022-09-03T13:38:35;21.50;99.90
19493;DHT22;9887;54.366;10.958;2022-09-03T13:41:10;21.30;99.90
19493;DHT22;9887;54.366;10.958;2022-09-03T13:43:43;21.40;99.90
19493;DHT22;9887;54.366;10.958;2022-09-03T13:46:16;21.50;99.90
19493;DHT22;9887;54.366;10.958;2022-09-03T13:48:48;21.50;99.90
19493;DHT22;9887;54.366;10.958;2022-09-03T13:51:38;21.40;99.90
19493;DHT22;9887;54.366;10.958;2022-09-03T13:54:13;21.40;99.90
19493;DHT22;9887;54.366;10.958;2022-09-03T13:57:08;21.30;99.90
19493;DHT22;9887;54.366;10.958;2022-09-03T13:59:50;21.30;99.90
19493;DHT22;9887;54.366;10.958;2022-09-03T14:02:25;21.40;99.90
19493;DHT22;9887;54.366;10.958;2022-09-03T14:05:02;21.50;99.90
19493;DHT22;9887;54.366;10.958;2022-09-03T14:07:44;21.50;99.90
19493;DHT22;9887;54.366;10.958;2022-09-03T14:10:21;21.50;99.90
19493;DHT22;9887;54.366;10.958;2022-09-03T14:13:01;21.60;99.90
19493;DHT22;9887;54.366;10.958;2022-09-03T14:15:39;21.30;99.90
19493;DHT22;9887;54.366;10.958;2022-09-03T14:18:15;21.30;99.90
19493;DHT22;9887;54.366;10.958;2022-09-03T14:20:55;21.20;99.90
19493;DHT22;9887;54.366;10.958;2022-09-03T14:23:30;21.20;99.90
19493;DHT22;9887;54.366;10.958;2022-09-03T14:26:04;21.20;99.90
19493;DHT22;9887;54.366;10.958;2022-09-03T14:28:34;21.20;99.90
19493;DHT22;9887;54.366;10.958;2022-09-03T14:31:11;21.20;99.90
19493;DHT22;9887;54.366;10.958;2022-09-03T14:33:50;20.90;99.90
19493;DHT22;9887;54.366;10.958;2022-09-03T14:36:26;20.90;99.90
19493;DHT22;9887;54.366;10.958;2022-09-03T14:42:11;20.80;99.90
19493;DHT22;9887;54.366;10.958;2022-09-03T14:45:11;20.70;99.90
19493;DHT22;9887;54.366;10.958;2022-09-03T14:48:03;20.50;99.90
19493;DHT22;9887;54.366;10.958;2022-09-03T14:50:43;20.40;99.90
19493;DHT22;9887;54.366;10.958;2022-09-03T14:53:35;20.30;99.90
19493;DHT22;9887;54.366;10.958;2022-09-03T14:56:21;20.30;99.90
19493;DHT22;9887;54.366;10.958;2022-09-03T15:02:16;20.20;99.90
19493;DHT22;9887;54.366;10.958;2022-09-03T15:04:57;20.10;99.90
19493;DHT22;9887;54.366;10.958;2022-09-03T15:07:42;20.10;99.90
19493;DHT22;9887;54.366;10.958;2022-09-03T15:10:20;20.10;99.90
19493;DHT22;9887;54.366;10.958;2022-09-03T15:12:54;20.10;99.90
19493;DHT22;9887;54.366;10.958;2022-09-03T15:15:31;20.10;99.90
19493;DHT22;9887;54.366;10.958;2022-09-03T15:18:09;20.10;99.90
19493;DHT22;9887;54.366;10.958;2022-09-03T15:20:48;20.10;99.90
19493;DHT22;9887;54.366;10.958;2022-09-03T15:23:24;20.00;99.90
19493;DHT22;9887;54.366;10.958;2022-09-03T15:29:23;20.10;99.90
19493;DHT22;9887;54.366;10.958;2022-09-03T15:32:00;20.00;99.90
19493;DHT22;9887;54.366;10.958;2022-09-03T15:34:49;20.00;99.90
19493;DHT22;9887;54.366;10.958;2022-09-03T15:37:25;20.00;99.90
19493;DHT22;9887;54.366;10.958;2022-09-03T15:40:01;20.10;99.90
19493;DHT22;9887;54.366;10.958;2022-09-03T15:42:30;20.10;99.90
19493;DHT22;9887;54.366;10.958;2022-09-03T15:45:04;20.10;99.90
19493;DHT22;9887;54.366;10.958;2022-09-03T15:47:40;20.10;99.90
19493;DHT22;9887;54.366;10.958;2022-09-03T15:50:25;20.10;99.90
19493;DHT22;9887;54.366;10.958;2022-09-03T15:53:01;20.10;99.90
19493;DHT22;9887;54.366;10.958;2022-09-03T15:55:33;20.10;99.90
19493;DHT22;9887;54.366;10.958;2022-09-03T15:58:09;20.10;99.90
19493;DHT22;9887;54.366;10.958;2022-09-03T16:00:52;20.00;99.90
19493;DHT22;9887;54.366;10.958;2022-09-03T16:03:32;20.00;99.90
19493;DHT22;9887;54.366;10.958;2022-09-03T16:06:04;19.90;99.90
19493;DHT22;9887;54.366;10.958;2022-09-03T16:08:42;19.90;99.90
19493;DHT22;9887;54.366;10.958;2022-09-03T16:11:18;19.90;99.90
19493;DHT22;9887;54.366;10.958;2022-09-03T16:13:57;19.80;99.90
19493;DHT22;9887;54.366;10.958;2022-09-03T16:16:32;19.80;99.90
19493;DHT22;9887;54.366;10.958;2022-09-03T16:19:14;19.70;99.90
19493;DHT22;9887;54.366;10.958;2022-09-03T16:21:47;19.70;99.90
19493;DHT22;9887;54.366;10.958;2022-09-03T16:24:22;19.60;99.90